Pagrindinis puslapis
METAR-TAF:

METAR-TAF

Oro uostai :

Dalkahuė, Čilė

platuma: 42-20-25S, ilguma: 073-42-56W, Aukštis: 161 m

Dabartinis oras

Ataskaita buvo paskelbta 48 minutes, ne 13:00 UTC
Vėjas 5 kt iš Pietų, svyruoja nuo Rytų ir Pietų/Pietvakarių
Temperatūra 10°C
Drėgmė 71%
Slėgis 1028 hPa
Matomumas 10 km arba daugiau
Mažai debesys ne aukštis 2500 ft

METAR: SCPQ 171300Z 17005KT 100V210 9999 FEW025 10/05 Q1028

Laikas: 10:48 (13:48 UTC)


TAF: trūkstamas

Orai ataskaitas ir orų prognozės (METAR, TAF).

turimą stotys yra geltonos ir raudonos taškus žemėlapyje.

Perkelti pele per norėdami pamatyti stoties vardą.

Tada spustelėkite, norėdami matyti oro stebėjimo ir prognozės.

Norėdami pakeisti žemėlapį: spustelėkite ant žalios mygtukų su juodo kryžiaus žemyn,; žalią mygtuką su brūkšneliu, jei norite nutolinti; arba žalių rodyklių gretimoms žemėlapius.


METAR-TAF: